createdAt,value
2022-11-15T00:01:23.699Z,13.38
2022-11-15T00:04:25.290Z,13.45
2022-11-15T00:07:53.382Z,13.65
2022-11-15T00:11:02.291Z,14.20
2022-11-15T00:14:04.311Z,12.93
2022-11-15T00:17:05.894Z,13.57
2022-11-15T00:20:08.161Z,14.70
2022-11-15T00:23:09.784Z,14.30
2022-11-15T00:26:15.175Z,14.50
2022-11-15T00:29:16.736Z,15.13
2022-11-15T00:32:18.332Z,14.25
2022-11-15T00:35:20.089Z,14.30
2022-11-15T00:38:21.639Z,14.18
2022-11-15T00:41:23.188Z,13.63
2022-11-15T00:44:24.759Z,13.93
2022-11-15T00:47:26.373Z,14.25
2022-11-15T00:50:27.926Z,15.07
2022-11-15T00:53:29.941Z,14.85
2022-11-15T00:56:31.804Z,13.30
2022-11-15T00:59:33.396Z,14.02
2022-11-15T01:02:35.276Z,13.98
2022-11-15T01:05:38.623Z,13.32
2022-11-15T01:08:40.897Z,13.80
2022-11-15T01:11:45.965Z,15.30
2022-11-15T01:14:47.538Z,14.07
2022-11-15T01:17:49.132Z,13.57
2022-11-15T01:20:50.742Z,14.27
2022-11-15T01:23:56.240Z,14.65
2022-11-15T01:27:00.918Z,16.05
2022-11-15T01:30:02.548Z,14.40
2022-11-15T01:33:04.104Z,14.45
2022-11-15T01:36:06.836Z,13.43
2022-11-15T01:39:08.865Z,14.05
2022-11-15T01:42:13.848Z,13.65
2022-11-15T01:45:16.086Z,13.05
2022-11-15T01:48:17.654Z,13.80
2022-11-15T01:51:19.943Z,13.63
2022-11-15T01:54:22.000Z,13.40
2022-11-15T01:57:23.652Z,13.90
2022-11-15T02:00:25.191Z,13.25
2022-11-15T02:03:33.068Z,13.88
2022-11-15T02:06:35.909Z,13.95
2022-11-15T02:09:37.903Z,14.40
2022-11-15T02:12:39.492Z,14.98
2022-11-15T02:16:29.029Z,13.93
2022-11-15T02:19:33.411Z,14.32
2022-11-15T02:22:47.021Z,13.77
2022-11-15T02:26:13.319Z,14.05
2022-11-15T02:29:32.956Z,14.20
2022-11-15T02:32:58.174Z,14.93
2022-11-15T02:36:03.373Z,16.60
2022-11-15T02:39:26.308Z,16.45
2022-11-15T02:43:08.624Z,16.58
2022-11-15T02:46:18.981Z,13.95
2022-11-15T02:49:20.619Z,14.90
2022-11-15T02:52:23.504Z,15.00
2022-11-15T02:55:37.960Z,14.98
2022-11-15T02:58:48.597Z,15.98
2022-11-15T03:02:32.279Z,17.23
2022-11-15T03:05:51.648Z,14.32
2022-11-15T03:09:02.347Z,14.25
2022-11-15T03:12:25.427Z,15.05
2022-11-15T03:15:36.615Z,14.17
2022-11-15T03:18:39.855Z,13.60
2022-11-15T03:21:41.550Z,14.35
2022-11-15T03:24:43.832Z,14.80
2022-11-15T03:27:47.782Z,15.67
2022-11-15T03:30:49.352Z,12.88
2022-11-15T03:33:52.303Z,13.93
2022-11-15T03:36:53.889Z,15.30
2022-11-15T03:39:55.444Z,14.07
2022-11-15T03:43:09.742Z,13.98
2022-11-15T03:46:19.776Z,14.02
2022-11-15T03:49:25.730Z,13.82
2022-11-15T03:52:27.308Z,13.87
2022-11-15T03:55:28.908Z,12.85
2022-11-15T03:58:34.655Z,13.75
2022-11-15T04:01:36.290Z,13.48
2022-11-15T04:04:37.886Z,14.10
2022-11-15T04:07:39.468Z,12.15
2022-11-15T04:10:41.291Z,11.73
2022-11-15T04:13:45.977Z,12.68
2022-11-15T04:16:47.549Z,13.13
2022-11-15T04:20:07.745Z,12.50
2022-11-15T04:23:31.538Z,12.80
2022-11-15T04:26:33.250Z,13.32
2022-11-15T04:29:40.554Z,14.13
2022-11-15T04:32:42.131Z,12.88
2022-11-15T04:35:43.943Z,13.35
2022-11-15T04:38:45.607Z,13.75
2022-11-15T04:41:47.176Z,13.83
2022-11-15T04:44:48.721Z,14.75
2022-11-15T04:47:50.276Z,15.15
2022-11-15T04:50:51.859Z,15.30
2022-11-15T04:53:53.470Z,14.70
2022-11-15T04:56:55.052Z,15.13
2022-11-15T04:59:56.598Z,14.43
2022-11-15T05:03:16.627Z,14.95
2022-11-15T05:06:18.172Z,14.88
2022-11-15T05:09:20.137Z,13.68
2022-11-15T05:12:21.682Z,15.18
2022-11-15T05:15:26.353Z,14.63
2022-11-15T05:18:27.913Z,14.07
2022-11-15T05:21:29.450Z,13.88
2022-11-15T05:24:30.994Z,14.27
2022-11-15T05:27:32.675Z,14.13
2022-11-15T05:30:34.263Z,12.80
2022-11-15T05:33:36.776Z,13.65
2022-11-15T05:36:40.041Z,13.25
2022-11-15T05:39:41.600Z,13.23
2022-11-15T05:42:43.202Z,13.38
2022-11-15T05:45:44.894Z,13.95
2022-11-15T05:48:47.719Z,14.07
2022-11-15T05:51:49.411Z,14.65
2022-11-15T05:54:50.966Z,13.10
2022-11-15T05:57:52.534Z,14.43
2022-11-15T06:00:54.313Z,14.85
2022-11-15T06:03:55.876Z,15.00
2022-11-15T06:06:59.180Z,14.93
2022-11-15T06:10:00.803Z,15.18
2022-11-15T06:13:03.436Z,15.18
2022-11-15T06:16:05.755Z,15.10
2022-11-15T06:19:07.898Z,15.32
2022-11-15T06:22:10.498Z,14.35
2022-11-15T06:25:12.089Z,15.45
2022-11-15T06:28:13.692Z,14.33
2022-11-15T06:31:15.272Z,14.82
2022-11-15T06:34:16.839Z,15.07
2022-11-15T06:37:18.551Z,15.65
2022-11-15T06:40:20.265Z,15.63
2022-11-15T06:43:21.898Z,15.38
2022-11-15T06:46:23.524Z,15.48
2022-11-15T06:49:25.120Z,16.37
2022-11-15T06:52:26.923Z,15.93
2022-11-15T06:55:28.466Z,16.83
2022-11-15T06:58:30.208Z,16.13
2022-11-15T07:01:31.786Z,16.97
2022-11-15T07:04:33.534Z,16.85
2022-11-15T07:07:35.199Z,15.70
2022-11-15T07:10:36.755Z,16.05
2022-11-15T07:13:39.023Z,15.80
2022-11-15T07:16:40.579Z,16.13
2022-11-15T07:19:42.160Z,15.65
2022-11-15T07:22:44.155Z,15.68
2022-11-15T07:25:45.843Z,16.37
2022-11-15T07:28:47.801Z,16.05
2022-11-15T07:31:50.817Z,15.43
2022-11-15T07:34:52.370Z,14.73
2022-11-15T07:38:01.472Z,16.33
2022-11-15T07:41:04.443Z,15.50
2022-11-15T07:44:06.200Z,16.15
2022-11-15T07:47:08.213Z,17.30
2022-11-15T07:50:09.923Z,17.63
2022-11-15T07:53:11.834Z,17.58
2022-11-15T07:56:13.554Z,16.38
2022-11-15T07:59:15.172Z,17.08
2022-11-15T08:02:18.851Z,16.67
2022-11-15T08:05:20.650Z,17.08
2022-11-15T08:08:22.224Z,17.15
2022-11-15T08:11:24.082Z,16.58
2022-11-15T08:14:25.712Z,17.83
2022-11-15T08:17:27.347Z,17.02
2022-11-15T08:20:30.977Z,17.02
2022-11-15T08:23:33.171Z,17.15
2022-11-15T08:26:35.090Z,16.03
2022-11-15T08:29:37.139Z,17.48
2022-11-15T08:32:38.718Z,17.20
2022-11-15T08:35:41.755Z,18.45
2022-11-15T08:38:43.496Z,17.90
2022-11-15T08:41:45.729Z,17.35
2022-11-15T08:44:47.407Z,17.45
2022-11-15T08:47:53.966Z,17.88
2022-11-15T08:50:56.839Z,18.48
2022-11-15T08:53:58.385Z,17.07
2022-11-15T08:56:59.966Z,18.77
2022-11-15T09:00:01.782Z,17.10
2022-11-15T09:03:07.638Z,17.45
2022-11-15T09:06:10.190Z,18.40
2022-11-15T09:09:11.841Z,18.25
2022-11-15T09:12:13.411Z,17.67
2022-11-15T09:15:16.369Z,18.55
2022-11-15T09:18:17.959Z,19.55
2022-11-15T09:21:20.241Z,20.42
2022-11-15T09:24:21.963Z,19.05
2022-11-15T09:27:23.558Z,19.77
2022-11-15T09:30:25.865Z,18.83
2022-11-15T09:33:27.841Z,19.40
2022-11-15T09:36:29.794Z,19.05
2022-11-15T09:39:31.539Z,20.33
2022-11-15T09:42:54.513Z,19.42
2022-11-15T09:46:17.536Z,19.38
2022-11-15T09:49:19.182Z,18.85
2022-11-15T09:52:20.916Z,19.07
2022-11-15T09:55:22.608Z,19.90
2022-11-15T09:58:35.187Z,19.95
2022-11-15T10:01:50.066Z,19.40
2022-11-15T10:04:52.358Z,19.80
2022-11-15T10:08:33.673Z,20.15
2022-11-15T10:11:38.604Z,19.10
2022-11-15T10:14:40.960Z,20.35
2022-11-15T10:17:46.386Z,22.20
2022-11-15T10:20:53.715Z,20.92
2022-11-15T10:23:55.543Z,20.70
2022-11-15T10:26:57.432Z,20.33
2022-11-15T10:29:59.104Z,22.07
2022-11-15T10:33:09.651Z,21.15
2022-11-15T10:36:14.239Z,21.40
2022-11-15T10:39:16.117Z,22.38
2022-11-15T10:42:28.344Z,21.38
2022-11-15T10:45:31.473Z,22.27
2022-11-15T10:48:33.475Z,22.00
2022-11-15T10:51:35.373Z,21.70
2022-11-15T10:54:46.194Z,21.15
2022-11-15T10:58:05.638Z,20.97
2022-11-15T11:01:33.885Z,22.67
2022-11-15T11:04:51.446Z,21.40
2022-11-15T11:08:02.308Z,21.88
2022-11-15T11:11:04.660Z,22.52
2022-11-15T11:14:13.518Z,21.88
2022-11-15T11:17:44.240Z,22.15
2022-11-15T11:20:48.279Z,22.57
2022-11-15T11:24:20.023Z,23.48
2022-11-15T11:27:27.672Z,22.98
2022-11-15T11:31:08.912Z,22.77
2022-11-15T11:34:42.207Z,24.13
2022-11-15T11:38:09.995Z,22.10
2022-11-15T11:41:15.117Z,22.50
2022-11-15T11:44:32.459Z,22.60
2022-11-15T11:47:40.520Z,24.10
2022-11-15T11:50:43.291Z,23.90
2022-11-15T11:53:44.882Z,23.73
2022-11-15T11:56:46.731Z,24.85
2022-11-15T11:59:54.612Z,23.47
2022-11-15T12:03:08.594Z,23.73
2022-11-15T12:06:16.336Z,24.15
2022-11-15T12:09:21.852Z,25.33
2022-11-15T12:12:26.479Z,26.58
2022-11-15T12:15:30.944Z,26.00
2022-11-15T12:18:32.790Z,24.42
2022-11-15T12:21:48.550Z,26.02
2022-11-15T12:24:54.538Z,25.05
2022-11-15T12:28:03.566Z,26.63
2022-11-15T12:31:36.146Z,24.40
2022-11-15T12:34:46.197Z,25.25
2022-11-15T12:37:49.654Z,26.73
2022-11-15T12:41:12.926Z,27.00
2022-11-15T12:44:38.554Z,25.53
2022-11-15T12:47:41.893Z,26.60
2022-11-15T12:50:58.587Z,25.95
2022-11-15T12:54:00.174Z,25.98
2022-11-15T12:57:04.838Z,28.33
2022-11-15T13:00:28.289Z,26.87
2022-11-15T13:03:30.073Z,27.77
2022-11-15T13:06:41.759Z,27.75
2022-11-15T13:09:43.338Z,23.90
2022-11-15T13:12:44.996Z,25.83
2022-11-15T13:15:57.440Z,26.33
2022-11-15T13:18:59.033Z,25.85
2022-11-15T13:22:19.148Z,25.95
2022-11-15T13:25:23.513Z,25.80
2022-11-15T13:28:45.477Z,25.93
2022-11-15T13:31:47.148Z,25.23
2022-11-15T13:34:52.305Z,25.40
2022-11-15T13:37:55.645Z,26.27
2022-11-15T13:40:57.734Z,26.50
2022-11-15T13:43:59.792Z,25.83
2022-11-15T13:47:03.327Z,24.63
2022-11-15T13:50:11.238Z,26.70
2022-11-15T13:53:14.006Z,28.05
2022-11-15T13:56:17.170Z,29.80
2022-11-15T13:59:26.059Z,28.65
2022-11-15T14:02:30.341Z,28.30
2022-11-15T14:05:31.894Z,29.33
2022-11-15T14:08:34.394Z,29.50
2022-11-15T14:11:36.328Z,28.63
2022-11-15T14:14:38.104Z,26.52
2022-11-15T14:17:45.674Z,27.05
2022-11-15T14:20:48.827Z,28.13
2022-11-15T14:23:51.628Z,26.57
2022-11-15T14:26:53.332Z,27.92
2022-11-15T14:29:55.060Z,28.60
2022-11-15T14:32:56.618Z,29.00
2022-11-15T14:35:59.579Z,28.03
2022-11-15T14:39:02.272Z,28.55
2022-11-15T14:42:04.576Z,30.17
2022-11-15T14:45:20.028Z,31.05
2022-11-15T14:48:21.664Z,30.43
2022-11-15T14:51:23.556Z,28.25
2022-11-15T14:54:25.164Z,30.95
2022-11-15T14:57:26.906Z,28.60
2022-11-15T15:00:33.809Z,27.90
2022-11-15T15:03:36.689Z,28.40
2022-11-15T15:06:38.986Z,27.50
2022-11-15T15:09:40.742Z,28.77
2022-11-15T15:12:42.340Z,28.85
2022-11-15T15:15:44.159Z,28.67
2022-11-15T15:18:45.758Z,29.95
2022-11-15T15:21:47.533Z,30.13
2022-11-15T15:24:49.144Z,31.13
2022-11-15T15:27:50.858Z,30.80
2022-11-15T15:30:53.770Z,31.00
2022-11-15T15:33:55.389Z,30.17
2022-11-15T15:37:25.270Z,30.65
2022-11-15T15:40:28.360Z,31.85
2022-11-15T15:43:29.928Z,31.50
2022-11-15T15:46:31.512Z,30.77
2022-11-15T15:49:33.064Z,31.70
2022-11-15T15:52:34.690Z,30.27
2022-11-15T15:55:36.376Z,32.10
2022-11-15T15:58:38.115Z,30.92
2022-11-15T16:01:39.715Z,33.75
2022-11-15T16:04:41.725Z,33.70
2022-11-15T16:07:44.319Z,33.87
2022-11-15T16:10:50.082Z,34.47
2022-11-15T16:13:52.523Z,33.30
2022-11-15T16:16:54.113Z,36.03
2022-11-15T16:19:55.700Z,35.80
2022-11-15T16:23:01.180Z,36.00
2022-11-15T16:26:28.170Z,35.05
2022-11-15T16:29:29.847Z,34.72
2022-11-15T16:32:31.698Z,34.72
2022-11-15T16:35:33.459Z,34.17
2022-11-15T16:38:35.426Z,34.53
2022-11-15T16:41:37.247Z,35.72
2022-11-15T16:44:38.801Z,35.13
2022-11-15T16:47:40.617Z,35.90
2022-11-15T16:50:43.049Z,35.43
2022-11-15T16:53:44.810Z,36.13
2022-11-15T16:56:46.462Z,33.95
2022-11-15T16:59:48.041Z,34.85
2022-11-15T17:02:50.385Z,33.07
2022-11-15T17:05:52.056Z,32.85
2022-11-15T17:08:53.671Z,32.38
2022-11-15T17:11:58.015Z,32.40
2022-11-15T17:14:59.602Z,32.47
2022-11-15T17:18:01.206Z,35.07
2022-11-15T17:21:12.550Z,30.65
2022-11-15T17:24:14.224Z,34.45
2022-11-15T17:27:15.941Z,32.70
2022-11-15T17:30:18.882Z,34.17
2022-11-15T17:33:20.464Z,33.23
2022-11-15T17:36:22.882Z,34.25
2022-11-15T17:39:25.034Z,33.67
2022-11-15T17:42:26.680Z,34.20
2022-11-15T17:45:28.369Z,35.33
2022-11-15T17:48:30.590Z,36.00
2022-11-15T17:51:32.385Z,37.55
2022-11-15T17:54:34.056Z,37.47
2022-11-15T17:57:35.809Z,37.70
2022-11-15T18:00:37.972Z,37.40
2022-11-15T18:03:39.617Z,40.40
2022-11-15T18:06:41.229Z,38.30
2022-11-15T18:09:44.222Z,36.95
2022-11-15T18:12:46.036Z,38.07
2022-11-15T18:15:54.333Z,37.20
2022-11-15T18:18:55.902Z,39.70
2022-11-15T18:21:57.604Z,38.70
2022-11-15T18:24:59.232Z,38.63
2022-11-15T18:28:03.820Z,38.57
2022-11-15T18:31:15.072Z,36.88
2022-11-15T18:34:17.105Z,37.03
2022-11-15T18:37:18.670Z,37.45
2022-11-15T18:40:20.354Z,36.50
2022-11-15T18:43:22.080Z,36.33
2022-11-15T18:46:25.211Z,37.08
2022-11-15T18:49:26.844Z,35.17
2022-11-15T18:52:28.515Z,35.67
2022-11-15T18:55:30.057Z,34.23
2022-11-15T18:58:36.460Z,35.30
2022-11-15T19:01:39.740Z,35.22
2022-11-15T19:04:41.292Z,36.65
2022-11-15T19:07:42.897Z,34.83
2022-11-15T19:10:44.499Z,36.47
2022-11-15T19:13:52.308Z,37.50
2022-11-15T19:16:54.763Z,37.97
2022-11-15T19:19:56.440Z,37.28
2022-11-15T19:22:58.034Z,35.28
2022-11-15T19:26:00.785Z,35.67
2022-11-15T19:29:02.613Z,34.37
2022-11-15T19:32:05.422Z,35.40
2022-11-15T19:35:07.300Z,35.50
2022-11-15T19:38:08.850Z,34.78
2022-11-15T19:41:15.002Z,34.87
2022-11-15T19:44:16.700Z,33.67
2022-11-15T19:47:18.288Z,34.10
2022-11-15T19:50:20.023Z,36.70
2022-11-15T19:53:23.246Z,34.05
2022-11-15T19:56:24.864Z,33.13
2022-11-15T19:59:30.019Z,35.55
2022-11-15T20:02:31.911Z,35.05
2022-11-15T20:05:33.548Z,33.67
2022-11-15T20:08:35.653Z,35.30
2022-11-15T20:11:38.206Z,34.90
2022-11-15T20:14:39.823Z,35.50
2022-11-15T20:17:41.384Z,37.25
2022-11-15T20:20:43.362Z,34.78
2022-11-15T20:23:45.002Z,35.55
2022-11-15T20:26:47.076Z,36.67
2022-11-15T20:29:48.896Z,36.13
2022-11-15T20:32:50.496Z,38.25
2022-11-15T20:35:55.094Z,37.47
2022-11-15T20:39:00.223Z,37.80
2022-11-15T20:42:01.869Z,36.43
2022-11-15T20:45:11.269Z,36.33
2022-11-15T20:48:16.060Z,34.28
2022-11-15T20:51:18.352Z,35.05
2022-11-15T20:54:20.504Z,34.73
2022-11-15T20:57:22.110Z,33.15
2022-11-15T21:00:25.878Z,32.42
2022-11-15T21:03:27.481Z,33.42
2022-11-15T21:06:29.062Z,31.10
2022-11-15T21:09:49.886Z,31.97
2022-11-15T21:12:51.864Z,33.97
2022-11-15T21:16:00.991Z,33.92
2022-11-15T21:19:02.557Z,33.85
2022-11-15T21:22:05.162Z,30.80
2022-11-15T21:25:07.003Z,31.27
2022-11-15T21:28:08.572Z,30.48
2022-11-15T21:31:10.201Z,30.73
2022-11-15T21:34:11.799Z,31.33
2022-11-15T21:37:13.342Z,30.93
2022-11-15T21:40:15.049Z,30.50
2022-11-15T21:43:16.917Z,29.25
2022-11-15T21:46:21.897Z,29.70
2022-11-15T21:49:23.492Z,29.27
2022-11-15T21:52:25.112Z,29.67
2022-11-15T21:55:26.696Z,31.52
2022-11-15T21:58:28.770Z,31.67
2022-11-15T22:01:49.154Z,31.70
2022-11-15T22:04:50.701Z,33.40
2022-11-15T22:07:52.256Z,30.90
2022-11-15T22:10:54.062Z,31.33
2022-11-15T22:13:55.876Z,31.83
2022-11-15T22:16:57.430Z,32.70
2022-11-15T22:20:07.764Z,33.73
2022-11-15T22:23:20.736Z,33.42
2022-11-15T22:26:24.020Z,35.45
2022-11-15T22:29:26.154Z,34.03
2022-11-15T22:32:31.091Z,35.08
2022-11-15T22:35:34.989Z,33.27
2022-11-15T22:38:37.181Z,35.22
2022-11-15T22:41:39.038Z,36.47
2022-11-15T22:44:41.201Z,35.83
2022-11-15T22:47:42.855Z,34.70
2022-11-15T22:50:44.541Z,35.03
2022-11-15T22:53:46.181Z,34.03
2022-11-15T22:56:47.980Z,35.33
2022-11-15T22:59:49.654Z,34.78
2022-11-15T23:02:55.650Z,33.63
2022-11-15T23:06:04.930Z,35.93
2022-11-15T23:09:06.555Z,33.67
2022-11-15T23:12:27.570Z,34.35
2022-11-15T23:15:49.145Z,32.50
2022-11-15T23:18:58.344Z,32.50
2022-11-15T23:22:18.405Z,31.27
2022-11-15T23:25:20.011Z,29.17
2022-11-15T23:28:21.730Z,31.98
2022-11-15T23:31:41.761Z,30.67
2022-11-15T23:34:44.647Z,31.05
2022-11-15T23:37:46.238Z,30.20
2022-11-15T23:40:54.447Z,31.25
2022-11-15T23:43:56.091Z,29.98
2022-11-15T23:46:57.704Z,28.70
2022-11-15T23:49:59.374Z,30.43
2022-11-15T23:53:01.000Z,28.30
2022-11-15T23:56:05.347Z,30.50
2022-11-15T23:59:07.183Z,30.15
